createdAt,value
2022-12-26T00:04:52.149Z,1.16185
2022-12-26T00:09:54.089Z,1.16185
2022-12-26T00:14:55.067Z,1.16185
2022-12-26T00:19:56.001Z,0.0
2022-12-26T00:24:56.942Z,1.16185
2022-12-26T00:29:57.884Z,1.16185
2022-12-26T00:34:58.832Z,1.16185
2022-12-26T00:39:59.781Z,1.16185
2022-12-26T00:45:00.768Z,1.16185
2022-12-26T00:50:12.355Z,1.16185
2022-12-26T00:55:15.892Z,1.16185
2022-12-26T01:00:16.870Z,1.16185
2022-12-26T01:05:17.814Z,1.16185
2022-12-26T01:10:18.818Z,1.16185
2022-12-26T01:15:19.813Z,1.16185
2022-12-26T01:20:20.801Z,0.0
2022-12-26T01:25:21.725Z,1.16185
2022-12-26T01:30:22.715Z,1.16185
2022-12-26T01:35:23.663Z,1.16185
2022-12-26T01:40:24.593Z,1.16185
2022-12-26T01:45:25.779Z,1.16185
2022-12-26T01:50:26.774Z,1.16185
2022-12-26T01:55:27.675Z,1.16185
2022-12-26T02:00:28.597Z,0.0
2022-12-26T02:05:29.513Z,0.0
2022-12-26T02:10:30.566Z,0.0
2022-12-26T02:15:31.532Z,0.0
2022-12-26T02:20:32.484Z,0.0
2022-12-26T02:25:33.468Z,0.0
2022-12-26T02:30:34.419Z,0.0
2022-12-26T02:35:35.354Z,0.0
2022-12-26T02:40:36.369Z,0.0
2022-12-26T02:45:37.362Z,0.0
2022-12-26T02:50:38.292Z,0.0
2022-12-26T02:55:39.291Z,0.0
2022-12-26T03:00:40.263Z,0.0
2022-12-26T03:05:41.201Z,0.0
2022-12-26T03:10:42.159Z,0.0
2022-12-26T03:15:43.139Z,0.0
2022-12-26T03:20:44.067Z,0.0
2022-12-26T03:25:44.955Z,0.0
2022-12-26T03:30:45.935Z,0.0
2022-12-26T03:35:46.870Z,0.0
2022-12-26T03:40:47.783Z,0.0
2022-12-26T03:45:48.721Z,0.0
2022-12-26T03:50:49.662Z,0.0
2022-12-26T03:55:50.646Z,0.0
2022-12-26T04:00:51.553Z,0.0
2022-12-26T04:05:52.465Z,0.0
2022-12-26T04:10:53.395Z,0.0
2022-12-26T04:15:54.438Z,0.0
2022-12-26T04:20:55.361Z,0.0
2022-12-26T04:25:56.269Z,0.0
2022-12-26T04:30:57.367Z,0.0
2022-12-26T04:35:58.285Z,0.0
2022-12-26T04:40:59.196Z,0.0
2022-12-26T04:46:00.211Z,0.0
2022-12-26T04:51:01.315Z,0.0
2022-12-26T04:56:02.214Z,0.0
2022-12-26T05:01:03.207Z,0.0
2022-12-26T05:06:04.164Z,0.0
2022-12-26T05:11:05.200Z,0.0
2022-12-26T05:16:06.224Z,0.0
2022-12-26T05:21:07.142Z,0.0
2022-12-26T05:26:08.137Z,0.0
2022-12-26T05:31:09.444Z,0.0
2022-12-26T05:36:10.479Z,0.0
2022-12-26T05:41:11.421Z,0.0
2022-12-26T05:46:12.474Z,0.0
2022-12-26T05:51:13.571Z,0.0
2022-12-26T05:56:14.530Z,0.0
2022-12-26T06:01:15.831Z,0.0
2022-12-26T06:06:16.779Z,0.0
2022-12-26T06:11:17.727Z,0.0
2022-12-26T06:16:18.761Z,0.0
2022-12-26T06:21:19.830Z,0.0
2022-12-26T06:26:20.752Z,0.0
2022-12-26T06:31:21.914Z,0.0
2022-12-26T06:36:22.880Z,0.0
2022-12-26T06:41:23.873Z,0.0
2022-12-26T06:46:24.919Z,0.47405
2022-12-26T06:51:26.005Z,0.8296
2022-12-26T06:56:26.933Z,5.0163
2022-12-26T07:01:28.039Z,5.3852
2022-12-26T07:06:29.109Z,9.6637
2022-12-26T07:11:30.126Z,3.24595
2022-12-26T07:16:31.199Z,21.70625
2022-12-26T07:21:37.941Z,22.68365
2022-12-26T07:26:41.341Z,28.0303
2022-12-26T07:31:42.409Z,36.01735
2022-12-26T07:36:43.397Z,48.5581
2022-12-26T07:41:44.343Z,61.83665
2022-12-26T07:46:45.293Z,89.4263
2022-12-26T07:51:46.231Z,149.56675
2022-12-26T07:56:47.174Z,256.8087
2022-12-26T08:01:48.466Z,159.5252
2022-12-26T08:06:49.547Z,147.9067
2022-12-26T08:11:50.527Z,168.63555
2022-12-26T08:27:55.324Z,173.9466
2022-12-26T08:32:56.231Z,237.60875
2022-12-26T08:37:57.372Z,327.88315
2022-12-26T08:43:21.343Z,450.81865
2022-12-26T08:48:32.797Z,394.55165
2022-12-26T08:53:33.758Z,532.112
2022-12-26T08:58:34.796Z,510.64535
2022-12-26T09:03:35.793Z,404.3998
2022-12-26T09:08:36.825Z,405.3772
2022-12-26T09:13:37.747Z,528.12825
2022-12-26T09:18:38.706Z,567.39155
2022-12-26T09:23:39.675Z,595.0915
2022-12-26T09:28:40.663Z,582.4956
2022-12-26T09:33:42.268Z,635.77525
2022-12-26T09:38:43.168Z,626.95965
2022-12-26T09:43:49.814Z,599.18555
2022-12-26T09:48:51.236Z,578.8066
2022-12-26T09:53:52.168Z,749.87615
2022-12-26T09:58:53.126Z,767.13845
2022-12-26T10:03:54.022Z,917.405
2022-12-26T10:08:54.989Z,857.5783
2022-12-26T10:13:55.909Z,491.18865
2022-12-26T10:18:57.475Z,384.27945
2022-12-26T10:23:59.543Z,828.6062
2022-12-26T10:29:00.480Z,1035.2139
2022-12-26T10:34:01.999Z,820.4181
2022-12-26T10:39:03.188Z,657.3712
2022-12-26T10:44:04.123Z,506.10825
2022-12-26T10:49:05.061Z,583.17825
2022-12-26T10:54:06.031Z,521.89495
2022-12-26T10:59:12.027Z,467.1587
2022-12-26T11:04:13.217Z,438.59165
2022-12-26T11:09:14.131Z,396.0824
2022-12-26T11:14:15.222Z,353.518
2022-12-26T11:19:16.456Z,325.2647
2022-12-26T11:24:17.418Z,322.01875
2022-12-26T11:29:18.391Z,336.56945
2022-12-26T11:34:19.367Z,293.02765
2022-12-26T11:39:20.452Z,282.2021
2022-12-26T11:44:21.376Z,330.70505
2022-12-26T11:49:22.598Z,352.1717
2022-12-26T11:54:23.545Z,356.39505
2022-12-26T11:59:24.492Z,404.6394
2022-12-26T12:04:25.466Z,447.9416
2022-12-26T12:09:31.495Z,395.5842
2022-12-26T12:14:32.446Z,408.12495
2022-12-26T12:19:33.457Z,475.2175
2022-12-26T12:24:34.392Z,307.7628
2022-12-26T12:29:35.312Z,211.67915
2022-12-26T12:34:36.245Z,171.254
2022-12-26T12:39:37.272Z,161.5903
2022-12-26T12:44:38.214Z,192.11215
2022-12-26T12:49:39.491Z,234.6214
2022-12-26T12:54:40.436Z,343.5957
2022-12-26T12:59:41.429Z,339.37235
2022-12-26T13:04:42.971Z,346.6382
2022-12-26T13:09:43.934Z,362.00085
2022-12-26T13:14:44.887Z,388.4838
2022-12-26T13:19:51.377Z,330.5016
2022-12-26T13:24:52.947Z,322.23935
2022-12-26T13:29:54.214Z,287.401
2022-12-26T13:34:55.135Z,396.8735
2022-12-26T13:39:56.260Z,438.20375
2022-12-26T13:44:57.217Z,460.6098
2022-12-26T13:49:58.150Z,406.2596
2022-12-26T13:54:59.200Z,391.50545
2022-12-26T14:00:00.180Z,321.85145
2022-12-26T14:05:01.152Z,273.53295
2022-12-26T14:10:07.143Z,299.0195
2022-12-26T14:15:08.099Z,253.154
2022-12-26T14:20:09.105Z,172.3227
2022-12-26T14:25:10.208Z,192.9774
2022-12-26T14:30:11.208Z,167.6563
2022-12-26T14:35:12.180Z,137.2086
2022-12-26T14:40:13.154Z,123.2664
2022-12-26T14:45:14.103Z,102.3531
2022-12-26T14:50:15.071Z,78.32315
2022-12-26T14:55:16.205Z,57.9632
2022-12-26T15:00:17.397Z,37.7877
2022-12-26T15:05:18.317Z,23.05255
2022-12-26T15:10:19.237Z,5.3852
2022-12-26T15:15:20.156Z,3.85445
2022-12-26T15:20:21.090Z,4.6474
2022-12-26T15:25:22.071Z,2.3237
2022-12-26T15:30:23.005Z,0.4148
2022-12-26T15:35:23.932Z,0.4148
2022-12-26T15:40:24.853Z,0.0
2022-12-26T15:45:28.417Z,0.0
2022-12-26T15:50:29.793Z,0.0
2022-12-26T15:55:30.749Z,0.0
2022-12-26T16:00:31.676Z,0.0
2022-12-26T16:05:32.665Z,0.0
2022-12-26T16:10:33.580Z,0.0
2022-12-26T16:15:34.611Z,0.0
2022-12-26T16:20:35.562Z,0.0
2022-12-26T16:25:38.099Z,0.0
2022-12-26T16:30:39.148Z,0.0
2022-12-26T16:35:40.050Z,0.0
2022-12-26T16:40:40.964Z,0.0
2022-12-26T16:45:41.862Z,0.0
2022-12-26T16:50:42.760Z,0.0
2022-12-26T16:55:43.643Z,0.0
2022-12-26T17:00:44.605Z,0.0
2022-12-26T17:05:45.629Z,0.0
2022-12-26T17:10:46.575Z,0.0
2022-12-26T17:15:52.552Z,0.0
2022-12-26T17:20:53.467Z,0.0
2022-12-26T17:25:55.115Z,0.0
2022-12-26T17:30:56.693Z,0.0
2022-12-26T17:41:28.716Z,0.0
2022-12-26T17:46:30.150Z,0.0
2022-12-26T17:51:31.328Z,0.0
2022-12-26T17:56:33.053Z,0.0
2022-12-26T18:01:34.291Z,0.0
2022-12-26T18:06:35.755Z,0.0
2022-12-26T18:11:36.845Z,0.0
2022-12-26T18:16:37.825Z,0.0
2022-12-26T18:21:38.790Z,0.0
2022-12-26T18:26:40.195Z,0.0
2022-12-26T18:31:41.200Z,0.0
2022-12-26T18:36:42.672Z,0.0
2022-12-26T18:41:43.591Z,0.0
2022-12-26T18:46:44.632Z,0.0
2022-12-26T18:51:45.765Z,0.0
2022-12-26T18:56:46.760Z,0.0
2022-12-26T19:01:47.901Z,0.0
2022-12-26T19:06:49.008Z,0.0
2022-12-26T19:11:50.192Z,0.0
2022-12-26T19:16:51.451Z,0.0
2022-12-26T19:21:53.257Z,0.0
2022-12-26T19:26:54.207Z,0.0
2022-12-26T19:31:55.237Z,0.0
2022-12-26T19:36:56.485Z,0.0
2022-12-26T19:41:57.772Z,0.0
2022-12-26T19:47:11.010Z,0.0
2022-12-26T19:52:13.850Z,0.0
2022-12-26T19:57:14.835Z,0.0
2022-12-26T20:02:16.435Z,0.0
2022-12-26T20:07:17.491Z,0.0
2022-12-26T20:12:18.391Z,0.0
2022-12-26T20:17:19.317Z,0.0
2022-12-26T20:22:20.307Z,0.0
2022-12-26T20:27:21.289Z,0.0
2022-12-26T20:32:22.218Z,0.0
2022-12-26T20:37:23.153Z,0.0
2022-12-26T20:42:24.084Z,0.0
2022-12-26T20:47:25.008Z,0.0
2022-12-26T20:52:25.943Z,0.0
2022-12-26T20:57:26.878Z,0.0
2022-12-26T21:02:27.900Z,0.0
2022-12-26T21:07:28.999Z,0.0
2022-12-26T21:12:29.907Z,0.0
2022-12-26T21:17:30.832Z,0.0
2022-12-26T21:22:31.798Z,0.0
2022-12-26T21:27:32.725Z,0.0
2022-12-26T21:32:33.633Z,0.0
2022-12-26T21:37:34.549Z,0.0
2022-12-26T21:42:35.435Z,0.0
2022-12-26T21:47:36.576Z,0.0
2022-12-26T21:52:37.543Z,0.0
2022-12-26T21:57:38.486Z,0.0
2022-12-26T22:02:39.563Z,0.0
2022-12-26T22:07:40.597Z,0.0
2022-12-26T22:12:41.511Z,0.0
2022-12-26T22:17:42.432Z,0.0
2022-12-26T22:22:43.448Z,0.0
2022-12-26T22:27:44.398Z,0.0
2022-12-26T22:32:45.328Z,0.0
2022-12-26T22:37:46.236Z,0.0
2022-12-26T22:42:47.107Z,0.0
2022-12-26T22:47:48.145Z,0.0
2022-12-26T22:52:49.107Z,0.0
2022-12-26T22:57:52.701Z,0.0
2022-12-26T23:02:54.436Z,0.0
2022-12-26T23:07:55.416Z,0.0
2022-12-26T23:12:56.339Z,0.0
2022-12-26T23:17:57.254Z,0.0
2022-12-26T23:22:58.253Z,0.0
2022-12-26T23:27:59.181Z,0.0
2022-12-26T23:33:00.107Z,0.0
2022-12-26T23:38:01.046Z,0.0
2022-12-26T23:43:02.188Z,0.0
2022-12-26T23:48:03.119Z,0.0
2022-12-26T23:53:04.091Z,0.0
2022-12-26T23:58:04.998Z,0.0
